sensor_id;sensor_type;location;lat;lon;timestamp;P1;durP1;ratioP1;P2;durP2;ratioP2
40707;SDS011;26392;42.696;23.350;2023-04-21T00:00:18;10.68;;;6.70;;
40707;SDS011;26392;42.696;23.350;2023-04-21T00:02:44;13.30;;;7.63;;
40707;SDS011;26392;42.696;23.350;2023-04-21T00:05:10;16.23;;;7.05;;
40707;SDS011;26392;42.696;23.350;2023-04-21T00:07:38;11.30;;;7.07;;
40707;SDS011;26392;42.696;23.350;2023-04-21T00:10:07;10.98;;;7.00;;
40707;SDS011;26392;42.696;23.350;2023-04-21T00:12:33;14.38;;;7.05;;
40707;SDS011;26392;42.696;23.350;2023-04-21T00:14:59;13.30;;;8.00;;
40707;SDS011;26392;42.696;23.350;2023-04-21T00:17:25;15.45;;;8.20;;
40707;SDS011;26392;42.696;23.350;2023-04-21T00:19:51;17.25;;;8.05;;
40707;SDS011;26392;42.696;23.350;2023-04-21T00:22:16;20.15;;;8.07;;
40707;SDS011;26392;42.696;23.350;2023-04-21T00:24:43;14.02;;;8.30;;
40707;SDS011;26392;42.696;23.350;2023-04-21T00:27:08;14.20;;;8.52;;
40707;SDS011;26392;42.696;23.350;2023-04-21T00:29:35;14.82;;;8.32;;
40707;SDS011;26392;42.696;23.350;2023-04-21T00:32:01;17.92;;;9.68;;
40707;SDS011;26392;42.696;23.350;2023-04-21T00:34:27;23.15;;;11.18;;
40707;SDS011;26392;42.696;23.350;2023-04-21T00:36:53;31.85;;;13.48;;
40707;SDS011;26392;42.696;23.350;2023-04-21T00:39:19;24.13;;;12.32;;
40707;SDS011;26392;42.696;23.350;2023-04-21T00:41:44;23.90;;;12.35;;
40707;SDS011;26392;42.696;23.350;2023-04-21T00:44:09;22.77;;;11.95;;
40707;SDS011;26392;42.696;23.350;2023-04-21T00:46:35;29.27;;;13.20;;
40707;SDS011;26392;42.696;23.350;2023-04-21T00:49:03;25.48;;;11.73;;
40707;SDS011;26392;42.696;23.350;2023-04-21T00:51:30;24.45;;;12.40;;
40707;SDS011;26392;42.696;23.350;2023-04-21T00:53:57;23.48;;;11.73;;
40707;SDS011;26392;42.696;23.350;2023-04-21T00:56:24;21.55;;;10.38;;
40707;SDS011;26392;42.696;23.350;2023-04-21T00:58:50;17.45;;;9.65;;
40707;SDS011;26392;42.696;23.350;2023-04-21T01:01:17;19.77;;;9.88;;
40707;SDS011;26392;42.696;23.350;2023-04-21T01:03:43;15.38;;;9.30;;
40707;SDS011;26392;42.696;23.350;2023-04-21T01:06:08;15.77;;;9.13;;
40707;SDS011;26392;42.696;23.350;2023-04-21T01:08:34;17.77;;;10.27;;
40707;SDS011;26392;42.696;23.350;2023-04-21T01:11:00;15.25;;;8.80;;
40707;SDS011;26392;42.696;23.350;2023-04-21T01:13:33;15.38;;;9.95;;
40707;SDS011;26392;42.696;23.350;2023-04-21T01:15:58;16.88;;;9.55;;
40707;SDS011;26392;42.696;23.350;2023-04-21T01:18:24;20.98;;;10.48;;
40707;SDS011;26392;42.696;23.350;2023-04-21T01:20:49;15.05;;;8.63;;
40707;SDS011;26392;42.696;23.350;2023-04-21T01:23:15;17.98;;;9.48;;
40707;SDS011;26392;42.696;23.350;2023-04-21T01:25:42;19.65;;;9.70;;
40707;SDS011;26392;42.696;23.350;2023-04-21T01:28:08;17.83;;;9.50;;
40707;SDS011;26392;42.696;23.350;2023-04-21T01:30:33;33.10;;;13.60;;
40707;SDS011;26392;42.696;23.350;2023-04-21T01:32:59;33.08;;;15.40;;
40707;SDS011;26392;42.696;23.350;2023-04-21T01:35:24;42.83;;;21.17;;
40707;SDS011;26392;42.696;23.350;2023-04-21T01:37:50;24.52;;;13.35;;
40707;SDS011;26392;42.696;23.350;2023-04-21T01:40:15;21.23;;;12.05;;
40707;SDS011;26392;42.696;23.350;2023-04-21T01:42:41;21.10;;;10.85;;
40707;SDS011;26392;42.696;23.350;2023-04-21T01:45:07;17.90;;;10.70;;
40707;SDS011;26392;42.696;23.350;2023-04-21T01:47:34;20.95;;;10.02;;
40707;SDS011;26392;42.696;23.350;2023-04-21T01:49:59;26.63;;;10.15;;
40707;SDS011;26392;42.696;23.350;2023-04-21T01:52:25;21.05;;;10.40;;
40707;SDS011;26392;42.696;23.350;2023-04-21T01:54:50;21.02;;;10.23;;
40707;SDS011;26392;42.696;23.350;2023-04-21T01:57:15;15.75;;;10.20;;
40707;SDS011;26392;42.696;23.350;2023-04-21T01:59:42;16.40;;;9.63;;
40707;SDS011;26392;42.696;23.350;2023-04-21T02:02:08;19.98;;;10.35;;
40707;SDS011;26392;42.696;23.350;2023-04-21T02:04:34;21.23;;;10.68;;
40707;SDS011;26392;42.696;23.350;2023-04-21T02:06:59;18.25;;;10.95;;
40707;SDS011;26392;42.696;23.350;2023-04-21T02:09:25;15.15;;;9.50;;
40707;SDS011;26392;42.696;23.350;2023-04-21T02:11:50;16.35;;;9.75;;
40707;SDS011;26392;42.696;23.350;2023-04-21T02:14:16;19.77;;;9.93;;
40707;SDS011;26392;42.696;23.350;2023-04-21T02:16:41;20.83;;;9.90;;
40707;SDS011;26392;42.696;23.350;2023-04-21T02:19:07;22.75;;;10.18;;
40707;SDS011;26392;42.696;23.350;2023-04-21T02:21:32;17.52;;;9.68;;
40707;SDS011;26392;42.696;23.350;2023-04-21T02:23:57;17.83;;;9.07;;
40707;SDS011;26392;42.696;23.350;2023-04-21T02:26:23;21.15;;;10.68;;
40707;SDS011;26392;42.696;23.350;2023-04-21T02:28:48;21.83;;;10.23;;
40707;SDS011;26392;42.696;23.350;2023-04-21T02:31:18;17.02;;;8.85;;
40707;SDS011;26392;42.696;23.350;2023-04-21T02:33:43;23.70;;;9.75;;
40707;SDS011;26392;42.696;23.350;2023-04-21T02:36:09;18.88;;;9.95;;
40707;SDS011;26392;42.696;23.350;2023-04-21T02:38:35;16.85;;;9.52;;
40707;SDS011;26392;42.696;23.350;2023-04-21T02:41:00;17.48;;;9.13;;
40707;SDS011;26392;42.696;23.350;2023-04-21T02:43:26;17.88;;;10.30;;
40707;SDS011;26392;42.696;23.350;2023-04-21T02:45:51;19.42;;;9.35;;
40707;SDS011;26392;42.696;23.350;2023-04-21T02:48:16;18.63;;;9.77;;
40707;SDS011;26392;42.696;23.350;2023-04-21T02:50:47;20.95;;;10.40;;
40707;SDS011;26392;42.696;23.350;2023-04-21T02:53:14;25.17;;;10.93;;
40707;SDS011;26392;42.696;23.350;2023-04-21T02:55:40;20.23;;;10.32;;
40707;SDS011;26392;42.696;23.350;2023-04-21T02:58:05;20.80;;;9.48;;
40707;SDS011;26392;42.696;23.350;2023-04-21T03:00:31;17.42;;;9.13;;
40707;SDS011;26392;42.696;23.350;2023-04-21T03:02:56;22.55;;;9.43;;
40707;SDS011;26392;42.696;23.350;2023-04-21T03:05:21;19.83;;;9.23;;
40707;SDS011;26392;42.696;23.350;2023-04-21T03:07:47;19.38;;;10.05;;
40707;SDS011;26392;42.696;23.350;2023-04-21T03:10:12;20.38;;;9.45;;
40707;SDS011;26392;42.696;23.350;2023-04-21T03:12:38;19.88;;;9.25;;
40707;SDS011;26392;42.696;23.350;2023-04-21T03:15:03;18.40;;;10.20;;
40707;SDS011;26392;42.696;23.350;2023-04-21T03:17:29;23.98;;;10.07;;
40707;SDS011;26392;42.696;23.350;2023-04-21T03:19:55;16.65;;;9.73;;
40707;SDS011;26392;42.696;23.350;2023-04-21T03:22:20;20.02;;;9.93;;
40707;SDS011;26392;42.696;23.350;2023-04-21T03:24:45;22.83;;;9.93;;
40707;SDS011;26392;42.696;23.350;2023-04-21T03:27:11;17.73;;;9.23;;
40707;SDS011;26392;42.696;23.350;2023-04-21T03:29:36;15.73;;;9.90;;
40707;SDS011;26392;42.696;23.350;2023-04-21T03:32:02;22.10;;;9.98;;
40707;SDS011;26392;42.696;23.350;2023-04-21T03:34:27;14.63;;;9.57;;
40707;SDS011;26392;42.696;23.350;2023-04-21T03:36:53;15.13;;;9.13;;
40707;SDS011;26392;42.696;23.350;2023-04-21T03:39:19;21.58;;;9.30;;
40707;SDS011;26392;42.696;23.350;2023-04-21T03:41:45;17.00;;;9.00;;
40707;SDS011;26392;42.696;23.350;2023-04-21T03:44:11;19.00;;;8.90;;
40707;SDS011;26392;42.696;23.350;2023-04-21T03:46:36;18.85;;;9.40;;
40707;SDS011;26392;42.696;23.350;2023-04-21T03:49:01;20.30;;;9.00;;
40707;SDS011;26392;42.696;23.350;2023-04-21T03:51:27;17.50;;;9.75;;
40707;SDS011;26392;42.696;23.350;2023-04-21T03:53:53;17.63;;;9.10;;
40707;SDS011;26392;42.696;23.350;2023-04-21T03:56:18;23.30;;;10.88;;
40707;SDS011;26392;42.696;23.350;2023-04-21T03:58:43;17.20;;;8.73;;
40707;SDS011;26392;42.696;23.350;2023-04-21T04:01:09;18.35;;;9.07;;
40707;SDS011;26392;42.696;23.350;2023-04-21T04:03:34;18.38;;;8.70;;
40707;SDS011;26392;42.696;23.350;2023-04-21T04:06:00;20.10;;;9.55;;
40707;SDS011;26392;42.696;23.350;2023-04-21T04:08:27;20.48;;;9.18;;
40707;SDS011;26392;42.696;23.350;2023-04-21T04:10:53;17.95;;;9.13;;
40707;SDS011;26392;42.696;23.350;2023-04-21T04:13:19;17.13;;;9.65;;
40707;SDS011;26392;42.696;23.350;2023-04-21T04:15:46;20.85;;;9.27;;
40707;SDS011;26392;42.696;23.350;2023-04-21T04:18:12;12.73;;;8.02;;
40707;SDS011;26392;42.696;23.350;2023-04-21T04:20:37;19.88;;;8.57;;
40707;SDS011;26392;42.696;23.350;2023-04-21T04:23:03;17.75;;;7.88;;
40707;SDS011;26392;42.696;23.350;2023-04-21T04:25:28;19.27;;;8.45;;
40707;SDS011;26392;42.696;23.350;2023-04-21T04:27:53;14.95;;;7.82;;
40707;SDS011;26392;42.696;23.350;2023-04-21T04:30:19;12.88;;;7.90;;
40707;SDS011;26392;42.696;23.350;2023-04-21T04:32:45;14.98;;;7.53;;
40707;SDS011;26392;42.696;23.350;2023-04-21T04:35:11;11.70;;;6.93;;
40707;SDS011;26392;42.696;23.350;2023-04-21T04:37:40;14.30;;;7.80;;
40707;SDS011;26392;42.696;23.350;2023-04-21T04:40:06;16.88;;;9.27;;
40707;SDS011;26392;42.696;23.350;2023-04-21T04:42:36;19.63;;;10.60;;
40707;SDS011;26392;42.696;23.350;2023-04-21T04:45:03;23.13;;;10.90;;
40707;SDS011;26392;42.696;23.350;2023-04-21T04:47:30;28.63;;;11.60;;
40707;SDS011;26392;42.696;23.350;2023-04-21T04:49:55;21.10;;;11.48;;
40707;SDS011;26392;42.696;23.350;2023-04-21T04:52:21;19.92;;;9.68;;
40707;SDS011;26392;42.696;23.350;2023-04-21T04:54:46;21.65;;;10.48;;
40707;SDS011;26392;42.696;23.350;2023-04-21T04:57:11;19.10;;;10.63;;
40707;SDS011;26392;42.696;23.350;2023-04-21T04:59:37;26.27;;;10.18;;
40707;SDS011;26392;42.696;23.350;2023-04-21T05:02:02;22.52;;;10.38;;
40707;SDS011;26392;42.696;23.350;2023-04-21T05:04:28;20.88;;;10.77;;
40707;SDS011;26392;42.696;23.350;2023-04-21T05:06:53;20.35;;;9.80;;
40707;SDS011;26392;42.696;23.350;2023-04-21T05:09:18;24.27;;;11.27;;
40707;SDS011;26392;42.696;23.350;2023-04-21T05:11:44;17.63;;;10.55;;
40707;SDS011;26392;42.696;23.350;2023-04-21T05:14:10;20.08;;;11.15;;
40707;SDS011;26392;42.696;23.350;2023-04-21T05:16:35;21.17;;;10.75;;
40707;SDS011;26392;42.696;23.350;2023-04-21T05:19:01;16.90;;;10.85;;
40707;SDS011;26392;42.696;23.350;2023-04-21T05:21:27;21.90;;;10.68;;
40707;SDS011;26392;42.696;23.350;2023-04-21T05:23:53;23.10;;;11.85;;
40707;SDS011;26392;42.696;23.350;2023-04-21T05:26:20;24.40;;;12.10;;
40707;SDS011;26392;42.696;23.350;2023-04-21T05:28:46;24.45;;;11.38;;
40707;SDS011;26392;42.696;23.350;2023-04-21T05:33:55;25.75;;;11.05;;
40707;SDS011;26392;42.696;23.350;2023-04-21T05:36:20;20.33;;;10.35;;
40707;SDS011;26392;42.696;23.350;2023-04-21T05:38:48;24.13;;;11.05;;
40707;SDS011;26392;42.696;23.350;2023-04-21T05:41:14;18.17;;;8.75;;
40707;SDS011;26392;42.696;23.350;2023-04-21T05:43:40;23.48;;;9.25;;
40707;SDS011;26392;42.696;23.350;2023-04-21T05:46:07;20.50;;;9.45;;
40707;SDS011;26392;42.696;23.350;2023-04-21T05:48:34;17.52;;;9.70;;
40707;SDS011;26392;42.696;23.350;2023-04-21T05:53:36;10.75;;;6.75;;
40707;SDS011;26392;42.696;23.350;2023-04-21T05:56:02;13.93;;;7.35;;
40707;SDS011;26392;42.696;23.350;2023-04-21T05:58:27;16.50;;;7.20;;
40707;SDS011;26392;42.696;23.350;2023-04-21T06:00:53;14.10;;;7.53;;
40707;SDS011;26392;42.696;23.350;2023-04-21T06:03:18;12.45;;;6.03;;
40707;SDS011;26392;42.696;23.350;2023-04-21T06:05:43;12.88;;;6.57;;
40707;SDS011;26392;42.696;23.350;2023-04-21T06:08:09;15.00;;;6.75;;
40707;SDS011;26392;42.696;23.350;2023-04-21T06:10:34;13.55;;;6.75;;
40707;SDS011;26392;42.696;23.350;2023-04-21T06:13:00;12.85;;;6.60;;
40707;SDS011;26392;42.696;23.350;2023-04-21T06:15:25;8.02;;;5.90;;
40707;SDS011;26392;42.696;23.350;2023-04-21T06:17:53;11.88;;;6.50;;
40707;SDS011;26392;42.696;23.350;2023-04-21T06:20:19;13.00;;;7.18;;
40707;SDS011;26392;42.696;23.350;2023-04-21T06:22:45;10.73;;;6.65;;
40707;SDS011;26392;42.696;23.350;2023-04-21T06:25:10;14.98;;;7.68;;
40707;SDS011;26392;42.696;23.350;2023-04-21T06:27:35;10.38;;;7.30;;
40707;SDS011;26392;42.696;23.350;2023-04-21T06:30:01;10.98;;;6.75;;
40707;SDS011;26392;42.696;23.350;2023-04-21T06:32:26;11.85;;;7.25;;
40707;SDS011;26392;42.696;23.350;2023-04-21T06:34:52;11.90;;;7.32;;
40707;SDS011;26392;42.696;23.350;2023-04-21T06:37:17;13.32;;;6.47;;
40707;SDS011;26392;42.696;23.350;2023-04-21T06:39:43;10.30;;;6.03;;
40707;SDS011;26392;42.696;23.350;2023-04-21T06:42:08;9.68;;;6.22;;
40707;SDS011;26392;42.696;23.350;2023-04-21T06:44:33;11.32;;;6.75;;
40707;SDS011;26392;42.696;23.350;2023-04-21T06:46:59;10.63;;;6.10;;
40707;SDS011;26392;42.696;23.350;2023-04-21T06:49:24;10.90;;;6.18;;
40707;SDS011;26392;42.696;23.350;2023-04-21T06:51:50;9.93;;;6.05;;
40707;SDS011;26392;42.696;23.350;2023-04-21T06:54:15;12.77;;;6.20;;
40707;SDS011;26392;42.696;23.350;2023-04-21T06:56:41;9.73;;;5.85;;
40707;SDS011;26392;42.696;23.350;2023-04-21T06:59:07;12.93;;;6.00;;
40707;SDS011;26392;42.696;23.350;2023-04-21T07:01:33;12.48;;;6.13;;
40707;SDS011;26392;42.696;23.350;2023-04-21T07:03:59;11.15;;;6.55;;
40707;SDS011;26392;42.696;23.350;2023-04-21T07:06:24;11.35;;;5.65;;
40707;SDS011;26392;42.696;23.350;2023-04-21T07:08:50;10.30;;;6.53;;
40707;SDS011;26392;42.696;23.350;2023-04-21T07:11:15;11.05;;;5.95;;
40707;SDS011;26392;42.696;23.350;2023-04-21T07:13:41;13.20;;;6.75;;
40707;SDS011;26392;42.696;23.350;2023-04-21T07:16:06;13.45;;;6.28;;
40707;SDS011;26392;42.696;23.350;2023-04-21T07:18:32;10.75;;;5.80;;
40707;SDS011;26392;42.696;23.350;2023-04-21T07:20:58;10.23;;;6.05;;
40707;SDS011;26392;42.696;23.350;2023-04-21T07:23:24;11.07;;;5.55;;
40707;SDS011;26392;42.696;23.350;2023-04-21T07:25:50;8.70;;;5.63;;
40707;SDS011;26392;42.696;23.350;2023-04-21T07:28:15;7.97;;;4.95;;
40707;SDS011;26392;42.696;23.350;2023-04-21T07:30:41;11.57;;;5.68;;
40707;SDS011;26392;42.696;23.350;2023-04-21T07:33:06;8.48;;;5.75;;
40707;SDS011;26392;42.696;23.350;2023-04-21T07:35:32;11.23;;;5.90;;
40707;SDS011;26392;42.696;23.350;2023-04-21T07:37:58;10.38;;;4.95;;
40707;SDS011;26392;42.696;23.350;2023-04-21T07:40:23;10.75;;;6.28;;
40707;SDS011;26392;42.696;23.350;2023-04-21T07:42:49;11.55;;;5.70;;
40707;SDS011;26392;42.696;23.350;2023-04-21T07:45:14;9.23;;;5.35;;
40707;SDS011;26392;42.696;23.350;2023-04-21T07:47:40;10.93;;;5.60;;
40707;SDS011;26392;42.696;23.350;2023-04-21T07:50:05;7.32;;;5.03;;
40707;SDS011;26392;42.696;23.350;2023-04-21T07:52:31;16.17;;;5.40;;
40707;SDS011;26392;42.696;23.350;2023-04-21T07:54:57;10.05;;;5.13;;
40707;SDS011;26392;42.696;23.350;2023-04-21T07:57:22;11.00;;;4.72;;
40707;SDS011;26392;42.696;23.350;2023-04-21T07:59:48;6.15;;;4.22;;
40707;SDS011;26392;42.696;23.350;2023-04-21T08:02:13;8.60;;;5.20;;
40707;SDS011;26392;42.696;23.350;2023-04-21T08:04:39;10.73;;;5.78;;
40707;SDS011;26392;42.696;23.350;2023-04-21T08:07:04;8.38;;;5.13;;
40707;SDS011;26392;42.696;23.350;2023-04-21T08:09:30;8.45;;;4.70;;
40707;SDS011;26392;42.696;23.350;2023-04-21T08:11:55;8.52;;;4.38;;
40707;SDS011;26392;42.696;23.350;2023-04-21T08:14:22;9.75;;;5.47;;
40707;SDS011;26392;42.696;23.350;2023-04-21T08:16:47;8.38;;;4.80;;
40707;SDS011;26392;42.696;23.350;2023-04-21T08:19:13;9.85;;;4.82;;
40707;SDS011;26392;42.696;23.350;2023-04-21T08:21:38;7.38;;;5.05;;
40707;SDS011;26392;42.696;23.350;2023-04-21T08:24:04;10.25;;;4.65;;
40707;SDS011;26392;42.696;23.350;2023-04-21T08:26:30;6.18;;;4.25;;
40707;SDS011;26392;42.696;23.350;2023-04-21T08:28:57;6.10;;;4.32;;
40707;SDS011;26392;42.696;23.350;2023-04-21T08:31:23;6.22;;;4.40;;
40707;SDS011;26392;42.696;23.350;2023-04-21T08:33:49;6.00;;;4.20;;
40707;SDS011;26392;42.696;23.350;2023-04-21T08:36:15;6.43;;;4.40;;
40707;SDS011;26392;42.696;23.350;2023-04-21T08:38:43;9.73;;;4.68;;
40707;SDS011;26392;42.696;23.350;2023-04-21T08:41:09;5.95;;;3.83;;
40707;SDS011;26392;42.696;23.350;2023-04-21T08:43:34;9.93;;;4.70;;
40707;SDS011;26392;42.696;23.350;2023-04-21T08:46:01;5.65;;;3.83;;
40707;SDS011;26392;42.696;23.350;2023-04-21T08:48:30;6.28;;;3.83;;
40707;SDS011;26392;42.696;23.350;2023-04-21T08:51:00;7.57;;;4.10;;
40707;SDS011;26392;42.696;23.350;2023-04-21T08:53:26;5.70;;;4.30;;
40707;SDS011;26392;42.696;23.350;2023-04-21T08:55:52;9.48;;;4.47;;
40707;SDS011;26392;42.696;23.350;2023-04-21T08:58:19;7.03;;;4.10;;
40707;SDS011;26392;42.696;23.350;2023-04-21T09:00:46;6.93;;;4.22;;
40707;SDS011;26392;42.696;23.350;2023-04-21T09:03:12;6.47;;;4.43;;
40707;SDS011;26392;42.696;23.350;2023-04-21T09:05:38;9.77;;;4.90;;
40707;SDS011;26392;42.696;23.350;2023-04-21T09:08:07;5.95;;;4.30;;
40707;SDS011;26392;42.696;23.350;2023-04-21T09:10:44;8.48;;;4.25;;
40707;SDS011;26392;42.696;23.350;2023-04-21T09:13:13;10.75;;;4.18;;
40707;SDS011;26392;42.696;23.350;2023-04-21T09:15:43;6.28;;;3.70;;
40707;SDS011;26392;42.696;23.350;2023-04-21T09:18:12;8.98;;;4.03;;
40707;SDS011;26392;42.696;23.350;2023-04-21T09:20:37;10.40;;;3.95;;
40707;SDS011;26392;42.696;23.350;2023-04-21T09:23:03;5.70;;;3.97;;
40707;SDS011;26392;42.696;23.350;2023-04-21T09:25:30;6.90;;;4.25;;
40707;SDS011;26392;42.696;23.350;2023-04-21T09:27:57;7.57;;;3.75;;
40707;SDS011;26392;42.696;23.350;2023-04-21T09:30:24;4.65;;;3.65;;
40707;SDS011;26392;42.696;23.350;2023-04-21T09:32:50;6.35;;;3.63;;
40707;SDS011;26392;42.696;23.350;2023-04-21T09:35:20;5.65;;;3.85;;
40707;SDS011;26392;42.696;23.350;2023-04-21T09:37:46;6.50;;;3.90;;
40707;SDS011;26392;42.696;23.350;2023-04-21T09:40:12;7.95;;;3.70;;
40707;SDS011;26392;42.696;23.350;2023-04-21T09:42:39;7.97;;;3.25;;
40707;SDS011;26392;42.696;23.350;2023-04-21T09:45:06;5.68;;;3.40;;
40707;SDS011;26392;42.696;23.350;2023-04-21T09:47:34;5.72;;;3.60;;
40707;SDS011;26392;42.696;23.350;2023-04-21T09:50:05;7.03;;;3.70;;
40707;SDS011;26392;42.696;23.350;2023-04-21T09:52:39;7.00;;;4.20;;
40707;SDS011;26392;42.696;23.350;2023-04-21T09:55:12;8.63;;;3.90;;
40707;SDS011;26392;42.696;23.350;2023-04-21T09:57:38;6.22;;;4.40;;
40707;SDS011;26392;42.696;23.350;2023-04-21T10:00:06;6.25;;;3.72;;
40707;SDS011;26392;42.696;23.350;2023-04-21T10:02:34;6.85;;;3.90;;
40707;SDS011;26392;42.696;23.350;2023-04-21T10:05:03;9.95;;;4.28;;
40707;SDS011;26392;42.696;23.350;2023-04-21T10:07:30;5.22;;;3.65;;
40707;SDS011;26392;42.696;23.350;2023-04-21T10:09:57;5.78;;;3.60;;
40707;SDS011;26392;42.696;23.350;2023-04-21T10:12:24;12.00;;;4.28;;
40707;SDS011;26392;42.696;23.350;2023-04-21T10:14:51;6.45;;;4.13;;
40707;SDS011;26392;42.696;23.350;2023-04-21T10:17:17;12.27;;;5.22;;
40707;SDS011;26392;42.696;23.350;2023-04-21T10:19:51;5.68;;;4.03;;
40707;SDS011;26392;42.696;23.350;2023-04-21T10:22:28;5.93;;;4.20;;
40707;SDS011;26392;42.696;23.350;2023-04-21T10:24:55;8.38;;;4.32;;
40707;SDS011;26392;42.696;23.350;2023-04-21T10:27:35;8.27;;;4.00;;
40707;SDS011;26392;42.696;23.350;2023-04-21T10:30:23;6.15;;;4.35;;
40707;SDS011;26392;42.696;23.350;2023-04-21T10:33:02;8.20;;;4.38;;
40707;SDS011;26392;42.696;23.350;2023-04-21T10:35:56;10.73;;;4.95;;
40707;SDS011;26392;42.696;23.350;2023-04-21T10:38:41;9.40;;;5.53;;
40707;SDS011;26392;42.696;23.350;2023-04-21T10:41:27;10.32;;;4.85;;
40707;SDS011;26392;42.696;23.350;2023-04-21T10:43:56;7.05;;;4.07;;
40707;SDS011;26392;42.696;23.350;2023-04-21T10:54:28;6.72;;;3.92;;
40707;SDS011;26392;42.696;23.350;2023-04-21T10:57:00;7.13;;;3.60;;
40707;SDS011;26392;42.696;23.350;2023-04-21T10:59:27;4.97;;;3.45;;
40707;SDS011;26392;42.696;23.350;2023-04-21T11:01:52;5.07;;;3.20;;
40707;SDS011;26392;42.696;23.350;2023-04-21T11:04:19;6.82;;;3.65;;
40707;SDS011;26392;42.696;23.350;2023-04-21T11:09:35;3.90;;;3.25;;
40707;SDS011;26392;42.696;23.350;2023-04-21T11:12:02;5.32;;;3.40;;
40707;SDS011;26392;42.696;23.350;2023-04-21T11:14:31;6.45;;;3.30;;
40707;SDS011;26392;42.696;23.350;2023-04-21T11:16:57;9.07;;;3.83;;
40707;SDS011;26392;42.696;23.350;2023-04-21T11:19:23;7.88;;;3.72;;
40707;SDS011;26392;42.696;23.350;2023-04-21T11:21:50;6.63;;;4.25;;
40707;SDS011;26392;42.696;23.350;2023-04-21T11:24:18;5.28;;;3.75;;
40707;SDS011;26392;42.696;23.350;2023-04-21T11:26:45;10.07;;;4.63;;
40707;SDS011;26392;42.696;23.350;2023-04-21T11:29:10;6.35;;;4.07;;
40707;SDS011;26392;42.696;23.350;2023-04-21T11:31:36;8.52;;;4.47;;
40707;SDS011;26392;42.696;23.350;2023-04-21T11:34:04;5.90;;;3.95;;
40707;SDS011;26392;42.696;23.350;2023-04-21T11:39:07;6.55;;;3.97;;
40707;SDS011;26392;42.696;23.350;2023-04-21T11:41:35;8.73;;;4.38;;
40707;SDS011;26392;42.696;23.350;2023-04-21T11:44:04;5.47;;;3.55;;
40707;SDS011;26392;42.696;23.350;2023-04-21T11:46:29;7.65;;;3.72;;
40707;SDS011;26392;42.696;23.350;2023-04-21T11:49:01;6.72;;;3.83;;
40707;SDS011;26392;42.696;23.350;2023-04-21T11:51:31;5.10;;;2.97;;
40707;SDS011;26392;42.696;23.350;2023-04-21T11:53:57;4.43;;;2.95;;
40707;SDS011;26392;42.696;23.350;2023-04-21T11:56:23;4.70;;;3.25;;
40707;SDS011;26392;42.696;23.350;2023-04-21T11:58:49;5.40;;;3.00;;
40707;SDS011;26392;42.696;23.350;2023-04-21T12:01:16;4.20;;;2.67;;
40707;SDS011;26392;42.696;23.350;2023-04-21T12:03:52;6.07;;;2.40;;
40707;SDS011;26392;42.696;23.350;2023-04-21T12:06:19;2.92;;;2.30;;
40707;SDS011;26392;42.696;23.350;2023-04-21T12:08:46;3.17;;;1.92;;
40707;SDS011;26392;42.696;23.350;2023-04-21T12:11:11;2.20;;;2.00;;
40707;SDS011;26392;42.696;23.350;2023-04-21T12:13:40;3.30;;;2.42;;
40707;SDS011;26392;42.696;23.350;2023-04-21T12:16:06;2.97;;;2.03;;
40707;SDS011;26392;42.696;23.350;2023-04-21T12:18:31;3.35;;;2.15;;
40707;SDS011;26392;42.696;23.350;2023-04-21T12:20:59;3.97;;;2.70;;
40707;SDS011;26392;42.696;23.350;2023-04-21T12:23:25;4.35;;;2.50;;
40707;SDS011;26392;42.696;23.350;2023-04-21T12:25:51;2.38;;;2.10;;
40707;SDS011;26392;42.696;23.350;2023-04-21T12:28:16;5.25;;;3.25;;
40707;SDS011;26392;42.696;23.350;2023-04-21T12:30:42;6.03;;;3.30;;
40707;SDS011;26392;42.696;23.350;2023-04-21T12:33:08;4.85;;;3.53;;
40707;SDS011;26392;42.696;23.350;2023-04-21T12:35:33;4.90;;;3.58;;
40707;SDS011;26392;42.696;23.350;2023-04-21T12:37:59;8.73;;;3.85;;
40707;SDS011;26392;42.696;23.350;2023-04-21T12:40:25;5.13;;;3.58;;
40707;SDS011;26392;42.696;23.350;2023-04-21T12:42:51;6.15;;;4.00;;
40707;SDS011;26392;42.696;23.350;2023-04-21T12:45:16;5.47;;;3.78;;
40707;SDS011;26392;42.696;23.350;2023-04-21T12:47:42;11.88;;;3.90;;
40707;SDS011;26392;42.696;23.350;2023-04-21T12:50:07;5.40;;;3.55;;
40707;SDS011;26392;42.696;23.350;2023-04-21T12:52:34;6.45;;;4.78;;
40707;SDS011;26392;42.696;23.350;2023-04-21T12:55:00;6.32;;;3.33;;
40707;SDS011;26392;42.696;23.350;2023-04-21T12:57:26;7.00;;;4.28;;
40707;SDS011;26392;42.696;23.350;2023-04-21T12:59:51;9.32;;;3.88;;
40707;SDS011;26392;42.696;23.350;2023-04-21T13:02:17;7.72;;;3.95;;
40707;SDS011;26392;42.696;23.350;2023-04-21T13:04:42;4.05;;;3.17;;
40707;SDS011;26392;42.696;23.350;2023-04-21T13:07:07;6.10;;;3.47;;
40707;SDS011;26392;42.696;23.350;2023-04-21T13:09:33;3.90;;;3.13;;
40707;SDS011;26392;42.696;23.350;2023-04-21T13:11:59;6.53;;;3.70;;
40707;SDS011;26392;42.696;23.350;2023-04-21T13:14:25;7.22;;;3.83;;
40707;SDS011;26392;42.696;23.350;2023-04-21T13:16:51;5.65;;;3.53;;
40707;SDS011;26392;42.696;23.350;2023-04-21T13:19:17;6.28;;;3.50;;
40707;SDS011;26392;42.696;23.350;2023-04-21T13:21:43;10.25;;;3.50;;
40707;SDS011;26392;42.696;23.350;2023-04-21T13:24:09;5.38;;;3.50;;
40707;SDS011;26392;42.696;23.350;2023-04-21T13:26:34;8.82;;;4.10;;
40707;SDS011;26392;42.696;23.350;2023-04-21T13:29:00;7.25;;;3.47;;
40707;SDS011;26392;42.696;23.350;2023-04-21T13:31:27;9.10;;;4.28;;
40707;SDS011;26392;42.696;23.350;2023-04-21T13:33:52;7.43;;;3.70;;
40707;SDS011;26392;42.696;23.350;2023-04-21T13:36:19;6.63;;;3.38;;
40707;SDS011;26392;42.696;23.350;2023-04-21T13:38:44;5.85;;;3.78;;
40707;SDS011;26392;42.696;23.350;2023-04-21T13:41:12;10.35;;;3.83;;
40707;SDS011;26392;42.696;23.350;2023-04-21T13:43:37;7.78;;;3.55;;
40707;SDS011;26392;42.696;23.350;2023-04-21T13:46:03;9.50;;;3.88;;
40707;SDS011;26392;42.696;23.350;2023-04-21T13:48:29;5.43;;;3.88;;
40707;SDS011;26392;42.696;23.350;2023-04-21T13:50:54;5.15;;;3.38;;
40707;SDS011;26392;42.696;23.350;2023-04-21T13:53:20;7.07;;;3.80;;
40707;SDS011;26392;42.696;23.350;2023-04-21T13:55:45;7.07;;;3.47;;
40707;SDS011;26392;42.696;23.350;2023-04-21T13:58:12;10.27;;;3.88;;
40707;SDS011;26392;42.696;23.350;2023-04-21T14:00:39;5.90;;;4.00;;
40707;SDS011;26392;42.696;23.350;2023-04-21T14:03:05;4.80;;;3.53;;
40707;SDS011;26392;42.696;23.350;2023-04-21T14:05:30;6.60;;;4.20;;
40707;SDS011;26392;42.696;23.350;2023-04-21T14:07:56;6.40;;;4.13;;
40707;SDS011;26392;42.696;23.350;2023-04-21T14:10:22;7.72;;;4.30;;
40707;SDS011;26392;42.696;23.350;2023-04-21T14:12:47;6.05;;;3.90;;
40707;SDS011;26392;42.696;23.350;2023-04-21T14:15:13;7.63;;;4.20;;
40707;SDS011;26392;42.696;23.350;2023-04-21T14:17:38;7.93;;;4.10;;
40707;SDS011;26392;42.696;23.350;2023-04-21T14:20:04;7.82;;;4.18;;
40707;SDS011;26392;42.696;23.350;2023-04-21T14:22:31;7.30;;;4.15;;
40707;SDS011;26392;42.696;23.350;2023-04-21T14:24:56;6.70;;;4.35;;
40707;SDS011;26392;42.696;23.350;2023-04-21T14:27:22;7.15;;;4.20;;
40707;SDS011;26392;42.696;23.350;2023-04-21T14:29:47;7.53;;;4.60;;
40707;SDS011;26392;42.696;23.350;2023-04-21T14:32:13;16.95;;;4.53;;
40707;SDS011;26392;42.696;23.350;2023-04-21T14:34:38;11.90;;;4.32;;
40707;SDS011;26392;42.696;23.350;2023-04-21T14:37:03;7.38;;;4.45;;
40707;SDS011;26392;42.696;23.350;2023-04-21T14:39:29;9.73;;;4.82;;